Time;durP1;ratioP1;P1;durP2;ratioP2;P2;SDS_P1;SDS_P2;PMS_P1;PMS_P2;Temp;Humidity;BMP_temperature;BMP_pressure;BME280_temperature;BME280_humidity;BME280_pressure;Samples;Min_cycle;Max_cycle;Signal;HPM_P1;HPM_P2
2021/10/23 00:00:19;;;;;;;9.33;1.03;;;6.50;99.90;;;;;;5033551;28;20189;-61
2021/10/23 00:02:44;;;;;;;0.50;0.50;;;6.50;99.90;;;;;;5033574;28;20215;-61
2021/10/23 00:05:10;;;;;;;0.20;0.20;;;6.50;99.90;;;;;;5033627;28;20181;-63
2021/10/23 00:07:35;;;;;;;0.20;0.10;;;6.50;99.90;;;;;;5033449;28;20240;-63
2021/10/23 00:10:01;;;;;;;0.20;0.10;;;6.40;99.90;;;;;;5033285;28;20197;-63
2021/10/23 00:12:26;;;;;;;4.23;0.40;;;6.40;99.90;;;;;;5033361;28;20225;-63
2021/10/23 00:14:52;;;;;;;0.90;0.30;;;6.40;99.90;;;;;;5032499;28;20685;-62
2021/10/23 00:17:18;;;;;;;0.40;0.33;;;6.40;99.90;;;;;;5033568;28;20298;-60
2021/10/23 00:19:44;;;;;;;0.20;0.20;;;6.40;99.90;;;;;;5033284;28;20185;-61
2021/10/23 00:22:09;;;;;;;0.20;0.20;;;6.50;99.90;;;;;;5033562;28;20665;-61
2021/10/23 00:24:35;;;;;;;0.50;0.50;;;6.50;99.90;;;;;;5033564;28;20619;-61
2021/10/23 00:27:00;;;;;;;0.20;0.20;;;6.50;99.90;;;;;;5033387;28;20209;-61
2021/10/23 00:29:26;;;;;;;0.30;0.17;;;6.50;99.90;;;;;;5032356;28;20182;-63
2021/10/23 00:31:51;;;;;;;0.20;0.20;;;6.50;99.90;;;;;;5033350;28;20359;-63
2021/10/23 00:34:17;;;;;;;3.40;0.33;;;6.50;99.90;;;;;;5033369;28;20169;-63
2021/10/23 00:36:42;;;;;;;1.23;1.23;;;6.50;99.90;;;;;;5033374;28;20185;-63
2021/10/23 00:39:08;;;;;;;0.20;0.17;;;6.50;99.90;;;;;;5033089;28;20178;-63
2021/10/23 00:41:34;;;;;;;0.20;0.20;;;6.60;99.90;;;;;;5032291;28;20396;-63
2021/10/23 00:43:59;;;;;;;0.20;0.10;;;6.60;99.90;;;;;;5033224;28;20178;-63
2021/10/23 00:46:25;;;;;;;0.20;0.20;;;6.60;99.90;;;;;;5032274;28;20182;-63
2021/10/23 00:48:50;;;;;;;0.20;0.20;;;6.60;99.90;;;;;;5033048;28;20223;-63
2021/10/23 00:51:16;;;;;;;0.50;0.30;;;6.60;99.90;;;;;;5033603;28;20639;-61
2021/10/23 00:53:44;;;;;;;0.20;0.20;;;6.60;99.90;;;;;;5035840;28;20182;-63
2021/10/23 00:56:10;;;;;;;0.30;0.30;;;6.80;99.90;;;;;;5037064;28;20178;-61
2021/10/23 00:58:38;;;;;;;0.30;0.30;;;6.80;99.90;;;;;;5036787;28;20212;-62
2021/10/23 01:01:03;;;;;;;0.30;0.30;;;6.90;99.90;;;;;;5036001;28;20209;-61
2021/10/23 01:03:29;;;;;;;1.07;0.30;;;6.90;99.90;;;;;;5036919;28;20536;-60
2021/10/23 01:05:55;;;;;;;0.20;0.20;;;6.90;99.90;;;;;;5036942;28;20228;-60
2021/10/23 01:08:21;;;;;;;0.20;0.20;;;6.90;99.90;;;;;;5036594;28;20217;-61
2021/10/23 01:10:46;;;;;;;0.20;0.10;;;6.90;99.90;;;;;;5035794;28;20424;-61
2021/10/23 01:13:12;;;;;;;0.20;0.20;;;7.00;99.90;;;;;;5036658;28;20452;-61
2021/10/23 01:15:38;;;;;;;0.20;0.20;;;6.90;99.90;;;;;;5036734;28;20560;-61
2021/10/23 01:18:07;;;;;;;0.30;0.30;;;6.90;99.90;;;;;;5036461;28;20428;-60
2021/10/23 01:20:34;;;;;;;0.30;0.22;;;6.90;99.90;;;;;;5036599;28;20734;-60
2021/10/23 01:23:00;;;;;;;0.73;0.50;;;6.90;99.90;;;;;;5036534;28;20217;-63
2021/10/23 01:25:29;;;;;;;0.20;0.20;;;6.80;99.90;;;;;;5036499;28;20189;-63
2021/10/23 01:27:58;;;;;;;0.47;0.47;;;6.70;99.90;;;;;;5036512;28;20245;-63
2021/10/23 01:30:24;;;;;;;0.20;0.20;;;6.70;99.90;;;;;;5036367;28;20176;-63
2021/10/23 01:32:51;;;;;;;0.40;0.40;;;6.80;99.90;;;;;;5036533;28;20178;-63
2021/10/23 01:35:17;;;;;;;0.50;0.50;;;6.90;99.90;;;;;;5036490;28;20194;-62
2021/10/23 01:37:47;;;;;;;0.40;0.40;;;7.00;99.90;;;;;;5036460;28;20606;-61
2021/10/23 01:40:20;;;;;;;0.20;0.20;;;7.10;99.90;;;;;;5036183;28;20213;-61
2021/10/23 01:42:45;;;;;;;1.88;0.50;;;7.10;99.90;;;;;;5036261;28;20182;-63
2021/10/23 01:45:11;;;;;;;1.50;0.40;;;7.20;99.90;;;;;;5036098;28;20230;-63
2021/10/23 01:47:39;;;;;;;0.20;0.20;;;7.20;99.90;;;;;;5035004;28;20566;-60
2021/10/23 01:50:06;;;;;;;0.60;0.30;;;7.20;99.90;;;;;;5035993;28;20181;-60
2021/10/23 01:52:32;;;;;;;0.20;0.17;;;7.10;99.90;;;;;;5036001;28;20181;-60
2021/10/23 01:54:57;;;;;;;0.93;0.87;;;7.10;99.90;;;;;;5036001;28;20545;-60
2021/10/23 01:57:23;;;;;;;0.20;0.10;;;7.10;99.90;;;;;;5035941;28;20678;-60
2021/10/23 01:59:50;;;;;;;0.20;0.20;;;7.10;99.90;;;;;;5035680;28;20184;-60
2021/10/23 02:02:16;;;;;;;0.30;0.20;;;7.10;99.90;;;;;;5035852;28;20531;-63
2021/10/23 02:04:41;;;;;;;0.20;0.20;;;7.00;99.90;;;;;;5034967;28;20177;-63
2021/10/23 02:07:07;;;;;;;0.20;0.20;;;7.10;99.90;;;;;;5034698;28;20264;-63
2021/10/23 02:09:33;;;;;;;0.20;0.20;;;7.00;99.90;;;;;;5035411;28;20888;-60
2021/10/23 02:11:58;;;;;;;0.20;0.20;;;6.90;99.90;;;;;;5035646;28;20194;-61
2021/10/23 02:14:24;;;;;;;0.30;0.30;;;6.90;99.90;;;;;;5035608;28;20178;-60
2021/10/23 02:16:49;;;;;;;0.20;0.20;;;6.90;99.90;;;;;;5035901;28;20252;-60
2021/10/23 02:19:15;;;;;;;2.93;0.47;;;6.90;99.90;;;;;;5035347;28;20245;-60
2021/10/23 02:21:40;;;;;;;0.40;0.30;;;6.90;99.90;;;;;;5035516;28;20189;-60
2021/10/23 02:24:06;;;;;;;0.30;0.30;;;6.90;99.90;;;;;;5034526;28;20213;-63
2021/10/23 02:26:32;;;;;;;0.20;0.20;;;7.00;99.90;;;;;;5035455;28;20522;-63
2021/10/23 02:28:57;;;;;;;0.83;0.50;;;7.10;99.90;;;;;;5035100;28;20646;-62
2021/10/23 02:31:23;;;;;;;1.40;1.30;;;7.10;99.90;;;;;;5035330;28;20178;-63
2021/10/23 02:33:48;;;;;;;3.90;0.70;;;7.20;99.90;;;;;;5035292;28;20188;-63
2021/10/23 02:36:14;;;;;;;0.67;0.67;;;7.20;99.90;;;;;;5035177;28;20264;-63
2021/10/23 02:38:40;;;;;;;1.63;0.30;;;7.20;99.90;;;;;;5033926;28;20295;-63
2021/10/23 02:41:05;;;;;;;1.50;0.37;;;7.40;99.90;;;;;;5035326;28;20189;-63
2021/10/23 02:43:31;;;;;;;0.43;0.40;;;7.50;99.90;;;;;;5035039;28;20181;-63
2021/10/23 02:45:56;;;;;;;0.20;0.20;;;7.40;99.90;;;;;;5035159;28;20223;-63
2021/10/23 02:48:22;;;;;;;0.20;0.20;;;7.40;99.90;;;;;;5034746;28;20211;-63
2021/10/23 02:50:48;;;;;;;0.20;0.20;;;7.40;99.90;;;;;;5034842;28;20638;-63
2021/10/23 02:53:13;;;;;;;0.20;0.20;;;7.40;99.90;;;;;;5034861;28;20235;-63
2021/10/23 02:55:39;;;;;;;0.20;0.20;;;7.40;99.90;;;;;;5035069;28;20177;-63
2021/10/23 02:58:05;;;;;;;0.20;0.20;;;7.40;99.90;;;;;;5034622;28;20181;-63
2021/10/23 03:00:31;;;;;;;0.20;0.20;;;7.40;99.90;;;;;;5034815;28;20640;-63
2021/10/23 03:02:56;;;;;;;0.20;0.10;;;7.30;99.90;;;;;;5034805;28;20216;-63
2021/10/23 03:05:22;;;;;;;0.20;0.20;;;7.30;99.90;;;;;;5034739;28;20181;-63
2021/10/23 03:07:48;;;;;;;0.20;0.17;;;7.30;99.90;;;;;;5034539;28;20209;-63
2021/10/23 03:10:14;;;;;;;0.20;0.20;;;7.20;99.90;;;;;;5034406;28;20252;-63
2021/10/23 03:12:40;;;;;;;0.20;0.20;;;7.20;99.90;;;;;;5034409;28;20196;-63
2021/10/23 03:15:06;;;;;;;0.20;0.20;;;7.20;99.90;;;;;;5034580;28;20618;-63
2021/10/23 03:17:32;;;;;;;0.20;0.10;;;7.20;99.90;;;;;;5034394;28;20520;-63
2021/10/23 03:19:58;;;;;;;0.20;0.20;;;7.20;99.90;;;;;;5034592;28;20272;-63
2021/10/23 03:22:25;;;;;;;0.20;0.20;;;7.30;99.90;;;;;;5034366;28;20173;-63
2021/10/23 03:24:50;;;;;;;0.85;0.85;;;7.30;99.90;;;;;;5033347;28;20181;-63
2021/10/23 03:27:18;;;;;;;0.20;0.17;;;7.30;99.90;;;;;;5033203;28;20181;-63
2021/10/23 03:29:45;;;;;;;0.20;0.20;;;7.20;99.90;;;;;;5034007;28;20170;-63
2021/10/23 03:32:11;;;;;;;2.28;0.20;;;7.20;99.90;;;;;;5033204;28;20186;-63
2021/10/23 03:34:37;;;;;;;0.30;0.20;;;7.10;99.90;;;;;;5034126;28;20654;-63
2021/10/23 03:37:03;;;;;;;0.20;0.20;;;7.00;99.90;;;;;;5034118;28;20259;-63
2021/10/23 03:39:28;;;;;;;0.30;0.20;;;6.80;99.90;;;;;;5033842;28;20494;-63
2021/10/23 03:41:54;;;;;;;0.20;0.20;;;6.80;99.90;;;;;;5034071;28;20185;-63
2021/10/23 03:44:19;;;;;;;0.20;0.20;;;6.80;99.90;;;;;;5033953;28;20185;-63
2021/10/23 03:46:45;;;;;;;0.30;0.20;;;6.80;99.90;;;;;;5032920;28;20190;-61
2021/10/23 03:49:10;;;;;;;0.20;0.20;;;6.70;99.90;;;;;;5033679;28;20240;-61
2021/10/23 03:51:36;;;;;;;0.20;0.20;;;6.80;99.90;;;;;;5033859;28;20209;-63
2021/10/23 03:54:01;;;;;;;0.20;0.20;;;6.70;99.90;;;;;;5033931;28;20190;-63
2021/10/23 03:56:27;;;;;;;0.20;0.20;;;6.60;99.90;;;;;;5033983;28;20199;-63
2021/10/23 03:58:52;;;;;;;0.20;0.20;;;6.70;99.90;;;;;;5033539;28;20181;-63
2021/10/23 04:01:18;;;;;;;0.20;0.20;;;6.70;99.90;;;;;;5032848;28;20181;-63
2021/10/23 04:03:44;;;;;;;7.67;1.17;;;6.80;99.90;;;;;;5033962;28;20208;-63
2021/10/23 04:06:09;;;;;;;0.20;0.10;;;6.90;99.90;;;;;;5033708;28;20185;-63
2021/10/23 04:08:35;;;;;;;0.40;0.30;;;6.90;99.90;;;;;;5032452;28;20275;-63
2021/10/23 04:11:01;;;;;;;0.20;0.20;;;6.90;99.90;;;;;;5033730;28;20667;-63
2021/10/23 04:13:26;;;;;;;0.30;0.27;;;7.00;99.90;;;;;;5033525;28;20814;-63
2021/10/23 04:15:52;;;;;;;0.20;0.20;;;7.00;99.90;;;;;;5034124;28;20232;-63
2021/10/23 04:18:18;;;;;;;4.53;0.53;;;7.00;99.90;;;;;;5033243;28;20268;-63
2021/10/23 04:20:44;;;;;;;0.20;0.20;;;7.10;99.90;;;;;;5032415;28;20436;-61
2021/10/23 04:23:10;;;;;;;0.90;0.52;;;7.00;99.90;;;;;;5033553;28;20765;-61
2021/10/23 04:25:39;;;;;;;0.20;0.20;;;7.00;99.90;;;;;;5032494;28;20192;-62
2021/10/23 04:28:05;;;;;;;0.20;0.20;;;7.00;99.90;;;;;;5033982;28;20313;-62
2021/10/23 04:30:31;;;;;;;0.20;0.20;;;7.10;99.90;;;;;;5035444;28;20328;-61
2021/10/23 04:32:56;;;;;;;0.20;0.20;;;7.00;99.90;;;;;;5035576;28;20169;-61
2021/10/23 04:35:22;;;;;;;0.20;0.20;;;7.00;99.90;;;;;;5035689;28;20192;-61
2021/10/23 04:37:47;;;;;;;0.97;0.43;;;6.90;99.90;;;;;;5035657;28;20185;-62
2021/10/23 04:40:13;;;;;;;0.30;0.30;;;7.00;99.90;;;;;;5035315;28;20176;-61
2021/10/23 04:42:39;;;;;;;0.20;0.20;;;6.90;99.90;;;;;;5035642;28;20280;-62
2021/10/23 04:45:05;;;;;;;0.20;0.20;;;6.80;99.90;;;;;;5037518;28;20668;-62
2021/10/23 04:47:30;;;;;;;0.30;0.30;;;6.70;99.90;;;;;;5037462;28;20523;-62
2021/10/23 04:49:56;;;;;;;0.20;0.20;;;6.70;99.90;;;;;;5037119;28;20260;-61
2021/10/23 04:52:22;;;;;;;0.20;0.20;;;6.60;99.90;;;;;;5037472;28;20185;-61
2021/10/23 04:54:47;;;;;;;0.20;0.20;;;6.60;99.90;;;;;;5036125;28;20643;-62
2021/10/23 04:57:13;;;;;;;0.30;0.30;;;6.70;99.90;;;;;;5037061;28;20174;-61
2021/10/23 04:59:38;;;;;;;0.20;0.20;;;6.70;99.90;;;;;;5036977;28;20182;-62
2021/10/23 05:02:04;;;;;;;0.20;0.20;;;6.70;99.90;;;;;;5035997;28;20201;-61
2021/10/23 05:04:29;;;;;;;0.20;0.20;;;6.80;99.90;;;;;;5037208;28;20250;-64
2021/10/23 05:06:57;;;;;;;1.50;0.50;;;6.70;99.90;;;;;;5037031;28;20173;-63
2021/10/23 05:09:23;;;;;;;0.20;0.20;;;6.60;99.90;;;;;;5036759;28;20212;-61
2021/10/23 05:11:48;;;;;;;0.20;0.20;;;6.60;99.90;;;;;;5036727;28;20175;-62
2021/10/23 05:14:14;;;;;;;0.20;0.10;;;6.70;99.90;;;;;;5037045;28;20192;-63
2021/10/23 05:16:40;;;;;;;0.30;0.20;;;6.80;99.90;;;;;;5036885;28;20264;-61
2021/10/23 05:19:05;;;;;;;0.20;0.20;;;6.80;99.90;;;;;;5036439;28;20205;-63
2021/10/23 05:21:31;;;;;;;0.30;0.20;;;6.90;99.90;;;;;;5036783;28;20524;-61
2021/10/23 05:23:58;;;;;;;0.20;0.20;;;6.90;99.90;;;;;;5036899;28;20188;-62
2021/10/23 05:26:24;;;;;;;0.22;0.20;;;7.00;99.90;;;;;;5036589;28;20261;-62
2021/10/23 05:28:50;;;;;;;3.23;1.80;;;7.00;99.90;;;;;;5036294;28;20301;-63
2021/10/23 05:31:15;;;;;;;0.20;0.20;;;6.80;99.90;;;;;;5036423;28;20416;-61
2021/10/23 05:33:41;;;;;;;0.20;0.20;;;6.90;99.90;;;;;;5035473;28;20204;-62
2021/10/23 05:36:07;;;;;;;3.80;0.40;;;7.00;99.90;;;;;;5036555;28;20272;-63
2021/10/23 05:38:32;;;;;;;0.20;0.20;;;6.90;99.90;;;;;;5035902;28;20516;-61
2021/10/23 05:40:58;;;;;;;0.20;0.20;;;6.80;99.90;;;;;;5035155;28;20424;-61
2021/10/23 05:43:24;;;;;;;0.60;0.60;;;6.80;99.90;;;;;;5036244;28;20181;-63
2021/10/23 05:45:49;;;;;;;0.20;0.17;;;6.90;99.90;;;;;;5035257;28;20188;-63
2021/10/23 05:48:15;;;;;;;0.20;0.20;;;7.00;99.90;;;;;;5034827;28;20283;-63
2021/10/23 05:50:41;;;;;;;0.20;0.20;;;7.10;99.90;;;;;;5036127;28;20181;-62
2021/10/23 05:53:06;;;;;;;0.20;0.10;;;7.00;99.90;;;;;;5035759;28;20462;-63
2021/10/23 05:55:32;;;;;;;0.20;0.20;;;7.10;99.90;;;;;;5035948;28;20885;-63
2021/10/23 05:57:58;;;;;;;0.20;0.20;;;6.90;99.90;;;;;;5035908;28;20182;-63
2021/10/23 06:00:24;;;;;;;0.40;0.30;;;6.90;99.90;;;;;;5035733;28;20193;-63
2021/10/23 06:02:49;;;;;;;0.20;0.20;;;6.70;99.90;;;;;;5035862;28;20554;-62
2021/10/23 06:05:15;;;;;;;0.20;0.20;;;6.70;99.90;;;;;;5035994;28;20522;-62
2021/10/23 06:07:42;;;;;;;0.20;0.20;;;6.70;99.90;;;;;;5034744;28;20209;-63
2021/10/23 06:10:10;;;;;;;0.68;0.68;;;6.60;99.90;;;;;;5035491;28;20193;-63
2021/10/23 06:12:37;;;;;;;0.20;0.20;;;6.60;99.90;;;;;;5035563;28;20193;-63
2021/10/23 06:15:04;;;;;;;0.50;0.40;;;6.60;99.90;;;;;;5033670;28;20247;-62
2021/10/23 06:17:29;;;;;;;0.20;0.20;;;6.60;99.90;;;;;;5032950;28;20228;-62
2021/10/23 06:19:55;;;;;;;0.20;0.20;;;6.60;99.90;;;;;;5035360;28;20566;-63
2021/10/23 06:22:21;;;;;;;0.20;0.20;;;6.70;99.90;;;;;;5035683;28;20505;-62
2021/10/23 06:24:46;;;;;;;1.47;0.67;;;6.70;99.90;;;;;;5035519;28;20173;-63
2021/10/23 06:27:12;;;;;;;0.20;0.20;;;6.60;99.90;;;;;;5034630;28;20514;-63
2021/10/23 06:29:38;;;;;;;1.80;0.30;;;6.60;99.90;;;;;;5035034;28;20268;-61
2021/10/23 06:32:04;;;;;;;2.63;0.93;;;6.60;99.90;;;;;;5035297;28;20598;-63
2021/10/23 06:34:29;;;;;;;1.25;0.40;;;6.60;99.90;;;;;;5035589;28;20256;-63
2021/10/23 06:36:56;;;;;;;0.30;0.30;;;6.60;99.90;;;;;;5035634;28;20257;-63
2021/10/23 06:39:21;;;;;;;0.20;0.20;;;6.70;99.90;;;;;;5035533;28;20193;-63
2021/10/23 06:41:47;;;;;;;0.20;0.13;;;6.80;99.90;;;;;;5035156;28;20201;-64
2021/10/23 06:44:12;;;;;;;0.20;0.20;;;6.90;99.90;;;;;;5033513;28;20194;-63
2021/10/23 06:46:40;;;;;;;0.20;0.20;;;6.90;99.90;;;;;;5035536;28;20182;-63
2021/10/23 06:49:07;;;;;;;0.57;0.57;;;7.00;99.90;;;;;;5034742;28;20654;-63
2021/10/23 06:51:33;;;;;;;1.42;0.47;;;7.10;99.90;;;;;;5034533;28;20178;-63
2021/10/23 06:54:00;;;;;;;0.30;0.20;;;7.20;99.90;;;;;;5034814;28;20292;-63
2021/10/23 06:56:27;;;;;;;0.20;0.20;;;7.30;99.90;;;;;;5034641;28;20188;-63
2021/10/23 06:58:54;;;;;;;0.20;0.10;;;7.40;99.90;;;;;;5034430;28;20177;-63
2021/10/23 07:01:20;;;;;;;0.20;0.10;;;7.60;99.90;;;;;;5034783;28;20607;-63
2021/10/23 07:03:46;;;;;;;0.20;0.20;;;7.60;99.90;;;;;;5035006;28;20190;-62
2021/10/23 07:06:12;;;;;;;0.98;0.95;;;7.70;99.90;;;;;;5034768;28;20520;-63
2021/10/23 07:08:37;;;;;;;0.20;0.10;;;7.60;99.90;;;;;;5034334;28;20205;-61
2021/10/23 07:11:03;;;;;;;0.20;0.20;;;7.70;99.90;;;;;;5034617;28;20177;-63
2021/10/23 07:13:29;;;;;;;1.13;0.60;;;7.70;99.90;;;;;;5034318;28;20645;-61
2021/10/23 07:15:54;;;;;;;0.20;0.20;;;7.60;99.90;;;;;;5034354;28;20181;-61
2021/10/23 07:18:23;;;;;;;0.20;0.20;;;7.60;99.90;;;;;;5034305;28;20614;-64
2021/10/23 07:20:49;;;;;;;0.20;0.20;;;7.70;99.90;;;;;;5034459;28;20232;-62
2021/10/23 07:23:14;;;;;;;0.20;0.10;;;7.80;99.90;;;;;;5033263;28;20185;-64
2021/10/23 07:25:41;;;;;;;0.20;0.20;;;7.80;99.90;;;;;;5034461;28;20181;-62
2021/10/23 07:28:07;;;;;;;0.20;0.20;;;7.80;99.90;;;;;;5033922;28;20211;-64
2021/10/23 07:30:32;;;;;;;0.20;0.10;;;7.80;99.90;;;;;;5034363;28;20197;-63
2021/10/23 07:32:58;;;;;;;0.20;0.20;;;7.90;99.90;;;;;;5034136;28;20174;-64
2021/10/23 07:35:23;;;;;;;0.20;0.13;;;8.00;99.90;;;;;;5033202;28;20177;-64
2021/10/23 07:37:49;;;;;;;0.37;0.37;;;8.10;99.90;;;;;;5027424;28;20200;-64
2021/10/23 07:40:15;;;;;;;0.20;0.20;;;8.30;99.90;;;;;;5033821;28;20569;-62
2021/10/23 07:42:41;;;;;;;0.20;0.20;;;8.10;99.90;;;;;;5024643;28;20181;-62
2021/10/23 07:45:11;;;;;;;0.52;0.38;;;8.20;99.90;;;;;;5033889;28;20181;-62
2021/10/23 07:47:41;;;;;;;0.20;0.20;;;8.00;99.90;;;;;;5030328;28;20217;-61
2021/10/23 07:50:09;;;;;;;0.20;0.10;;;7.90;99.90;;;;;;5023473;28;20266;-60
2021/10/23 07:52:36;;;;;;;0.20;0.20;;;7.90;99.90;;;;;;5034116;28;20251;-60
2021/10/23 07:55:03;;;;;;;0.20;0.20;;;7.90;99.90;;;;;;5033385;28;20183;-59
2021/10/23 07:57:29;;;;;;;0.52;0.52;;;8.00;99.90;;;;;;5032453;28;20560;-59
2021/10/23 07:59:54;;;;;;;0.97;0.97;;;8.30;99.90;;;;;;5032431;28;20177;-59
2021/10/23 08:02:20;;;;;;;0.20;0.20;;;8.20;99.90;;;;;;5032896;28;20688;-62
2021/10/23 08:04:46;;;;;;;0.20;0.20;;;8.40;99.90;;;;;;5033760;28;20554;-62
2021/10/23 08:07:11;;;;;;;7.63;1.90;;;8.40;99.90;;;;;;5033634;28;20480;-62
2021/10/23 08:09:38;;;;;;;2.40;0.80;;;8.50;99.90;;;;;;5033350;28;20212;-62
2021/10/23 08:12:05;;;;;;;0.20;0.20;;;8.50;99.90;;;;;;5033468;28;20246;-60
2021/10/23 08:14:32;;;;;;;0.22;0.17;;;8.60;99.90;;;;;;5033971;28;20175;-62
2021/10/23 08:16:58;;;;;;;0.30;0.20;;;8.90;99.90;;;;;;5033533;28;20245;-62
2021/10/23 08:19:23;;;;;;;0.40;0.40;;;9.20;99.90;;;;;;5033388;28;20627;-62
2021/10/23 08:21:50;;;;;;;0.30;0.30;;;9.20;99.90;;;;;;5033563;28;20301;-62
2021/10/23 08:24:15;;;;;;;0.57;0.57;;;9.20;99.90;;;;;;5033451;28;20424;-62
2021/10/23 08:26:42;;;;;;;0.20;0.20;;;9.30;99.90;;;;;;5033972;28;20199;-60
2021/10/23 08:29:08;;;;;;;0.20;0.20;;;9.60;99.90;;;;;;5033143;28;20208;-60
2021/10/23 08:31:34;;;;;;;0.20;0.20;;;9.40;99.90;;;;;;5033518;28;20189;-60
2021/10/23 08:34:00;;;;;;;0.20;0.10;;;9.50;99.90;;;;;;5033392;28;20176;-60
2021/10/23 08:36:27;;;;;;;0.20;0.10;;;9.50;99.90;;;;;;5032399;28;20515;-62
2021/10/23 08:38:54;;;;;;;0.25;0.20;;;9.50;99.90;;;;;;5033242;28;20195;-62
2021/10/23 08:41:20;;;;;;;0.30;0.20;;;9.50;99.90;;;;;;5032471;28;20185;-62
2021/10/23 08:43:46;;;;;;;0.63;0.63;;;9.40;99.90;;;;;;5033850;28;20188;-59
2021/10/23 08:46:23;;;;;;;0.20;0.10;;;9.30;99.90;;;;;;5033689;28;20174;-59
2021/10/23 08:48:55;;;;;;;0.30;0.20;;;9.40;99.90;;;;;;5032081;28;20594;-59
2021/10/23 08:51:22;;;;;;;3.05;1.23;;;9.60;99.90;;;;;;5033289;28;20181;-59
2021/10/23 08:53:49;;;;;;;0.20;0.20;;;9.70;99.90;;;;;;5033256;28;20178;-59
2021/10/23 08:56:14;;;;;;;0.20;0.15;;;9.60;99.90;;;;;;5033192;28;20174;-59
2021/10/23 08:58:41;;;;;;;0.20;0.10;;;9.70;99.90;;;;;;5033319;28;20181;-59
2021/10/23 09:01:10;;;;;;;0.30;0.20;;;9.80;99.90;;;;;;5033148;28;20181;-59
2021/10/23 09:03:36;;;;;;;0.30;0.20;;;9.90;99.90;;;;;;5033219;28;20641;-59
2021/10/23 09:06:02;;;;;;;0.30;0.20;;;10.00;99.90;;;;;;5032806;28;20184;-61
2021/10/23 09:08:27;;;;;;;0.40;0.40;;;9.90;99.90;;;;;;5032618;28;20212;-61
2021/10/23 09:10:56;;;;;;;0.20;0.20;;;9.90;99.90;;;;;;5032975;28;20609;-61
2021/10/23 09:13:31;;;;;;;0.25;0.17;;;10.10;99.90;;;;;;5033022;28;20205;-61
2021/10/23 09:15:57;;;;;;;0.85;0.85;;;10.20;99.90;;;;;;5036706;28;20169;-61
2021/10/23 09:18:45;;;;;;;0.20;0.20;;;10.30;99.90;;;;;;5036412;28;20192;-61
2021/10/23 09:21:19;;;;;;;0.30;0.20;;;10.80;99.90;;;;;;5036461;28;20208;-59
2021/10/23 09:23:45;;;;;;;0.50;0.43;;;10.80;99.90;;;;;;5036121;28;20173;-61
2021/10/23 09:26:31;;;;;;;0.47;0.40;;;10.70;99.90;;;;;;5036206;28;20580;-61
2021/10/23 09:29:16;;;;;;;0.30;0.20;;;10.50;99.90;;;;;;5036247;28;20575;-59
2021/10/23 09:31:44;;;;;;;0.43;0.20;;;10.40;99.90;;;;;;5036293;28;20188;-61
2021/10/23 09:34:10;;;;;;;0.30;0.20;;;10.40;99.90;;;;;;5036545;28;20618;-61
2021/10/23 09:36:48;;;;;;;0.20;0.20;;;10.40;99.90;;;;;;5036395;28;20200;-61
2021/10/23 09:39:34;;;;;;;0.40;0.20;;;10.60;99.90;;;;;;5035070;28;20181;-61
2021/10/23 09:42:10;;;;;;;0.30;0.20;;;11.00;99.90;;;;;;5036156;28;20260;-61
2021/10/23 09:45:02;;;;;;;0.30;0.30;;;11.30;95.70;;;;;;5036005;28;20610;-61
2021/10/23 09:47:48;;;;;;;0.30;0.20;;;11.10;1.00;;;;;;5030697;28;20200;-59
2021/10/23 09:50:15;;;;;;;0.30;0.20;;;10.90;49.00;;;;;;5035659;28;20216;-59
2021/10/23 09:53:07;;;;;;;0.30;0.20;;;10.70;99.50;;;;;;5036201;28;20186;-59
2021/10/23 09:55:54;;;;;;;0.30;0.20;;;10.80;99.90;;;;;;5036080;28;20524;-58
2021/10/23 09:58:22;;;;;;;5.45;0.77;;;10.80;99.90;;;;;;5035751;28;20222;-61
2021/10/23 10:00:50;;;;;;;0.30;0.10;;;10.80;99.90;;;;;;5035986;28;20185;-61
2021/10/23 10:03:18;;;;;;;0.30;0.20;;;10.80;99.90;;;;;;5031430;28;20186;-61
2021/10/23 10:05:43;;;;;;;0.40;0.30;;;10.90;99.90;;;;;;5025587;28;20209;-61
2021/10/23 10:08:11;;;;;;;0.40;0.30;;;10.80;99.90;;;;;;5006394;28;20657;-61
2021/10/23 10:10:47;;;;;;;0.30;0.20;;;10.80;99.90;;;;;;5027086;28;20448;-68
2021/10/23 10:13:18;;;;;;;0.30;0.20;;;10.90;99.90;;;;;;5028830;28;20284;-66
2021/10/23 10:15:48;;;;;;;0.55;0.55;;;11.10;99.90;;;;;;5035388;28;20525;-64
2021/10/23 10:18:19;;;;;;;0.82;0.20;;;11.20;32.10;;;;;;5034838;28;20181;-65
2021/10/23 10:20:57;;;;;;;0.30;0.20;;;11.20;1.00;;;;;;4998149;28;20190;-67
2021/10/23 10:23:37;;;;;;;0.30;0.20;;;11.40;1.00;;;;;;5015502;28;20527;-67
2021/10/23 10:26:14;;;;;;;0.30;0.10;;;11.70;1.00;;;;;;5015308;28;20178;-66
2021/10/23 10:29:09;;;;;;;0.30;0.20;;;11.80;1.00;;;;;;5031661;28;20209;-68
2021/10/23 10:32:02;;;;;;;0.30;0.20;;;12.20;1.00;;;;;;5023462;28;20220;-67
2021/10/23 10:37:29;;;;;;;0.30;0.20;;;12.20;1.00;;;;;;5034140;28;20552;-68
2021/10/23 10:40:15;;;;;;;0.30;0.10;;;11.90;1.00;;;;;;5033945;28;20218;-69
2021/10/23 10:43:00;;;;;;;0.40;0.30;;;11.70;1.00;;;;;;5034180;28;20236;-69
2021/10/23 10:45:36;;;;;;;0.68;0.47;;;11.60;1.00;;;;;;5034636;28;20177;-69
2021/10/23 10:48:22;;;;;;;0.30;0.20;;;11.80;1.00;;;;;;5034052;28;20299;-68
2021/10/23 10:50:57;;;;;;;0.60;0.30;;;12.00;1.00;;;;;;5034567;28;20250;-68
2021/10/23 10:53:29;;;;;;;0.30;0.20;;;12.10;1.00;;;;;;5031021;28;20184;-65
2021/10/23 10:56:05;;;;;;;0.30;0.10;;;12.10;1.00;;;;;;5034684;28;20178;-67
2021/10/23 10:58:50;;;;;;;0.30;0.20;;;12.20;1.00;;;;;;5034469;28;20595;-65
2021/10/23 11:01:22;;;;;;;0.30;0.20;;;12.30;1.00;;;;;;5033641;28;20204;-65
2021/10/23 11:03:51;;;;;;;0.75;0.30;;;12.40;1.00;;;;;;5034879;28;20502;-67
2021/10/23 11:06:32;;;;;;;1.20;1.10;;;12.70;1.00;;;;;;5034131;28;20193;-67
2021/10/23 11:09:15;;;;;;;0.30;0.20;;;12.60;99.90;;;;;;5034394;28;20224;-66
2021/10/23 11:11:44;;;;;;;0.30;0.20;;;12.40;1.00;;;;;;5034850;28;20177;-68
2021/10/23 11:14:35;;;;;;;0.77;0.55;;;12.30;1.00;;;;;;5034943;28;20181;-67
2021/10/23 11:17:01;;;;;;;0.40;0.20;;;12.40;1.00;;;;;;5015392;28;20182;-67
2021/10/23 11:19:41;;;;;;;2.70;0.33;;;12.20;1.00;;;;;;5029734;28;20219;-66
2021/10/23 11:22:30;;;;;;;11.05;1.50;;;12.30;1.00;;;;;;5024774;28;20264;-66
2021/10/23 11:25:02;;;;;;;0.30;0.20;;;12.40;1.00;;;;;;5034401;28;20177;-66
2021/10/23 11:27:30;;;;;;;0.30;0.20;;;12.30;1.00;;;;;;5034124;28;20185;-66
2021/10/23 11:30:18;;;;;;;0.30;0.10;;;12.20;1.00;;;;;;5026559;28;20187;-66
2021/10/23 11:32:56;;;;;;;0.30;0.20;;;12.40;1.00;;;;;;5033773;28;20564;-66
2021/10/23 11:35:38;;;;;;;0.30;0.10;;;12.50;1.00;;;;;;5016556;28;20250;-62
2021/10/23 11:38:25;;;;;;;0.30;0.20;;;12.50;1.00;;;;;;5032801;28;20614;-62
2021/10/23 11:40:55;;;;;;;17.80;1.33;;;12.30;1.00;;;;;;5030980;28;20643;-66
2021/10/23 11:43:21;;;;;;;4.30;1.20;;;12.30;1.00;;;;;;5033050;28;20203;-66
2021/10/23 11:45:47;;;;;;;0.30;0.20;;;12.70;1.00;;;;;;5031867;28;20587;-67
2021/10/23 11:48:15;;;;;;;0.30;0.20;;;12.70;99.90;;;;;;5017948;28;20288;-65
2021/10/23 11:50:43;;;;;;;0.30;0.20;;;12.50;1.00;;;;;;5034058;28;20477;-69
2021/10/23 11:53:38;;;;;;;0.30;0.10;;;12.60;99.90;;;;;;5031493;28;20209;-68
2021/10/23 11:56:08;;;;;;;0.30;0.20;;;12.70;99.90;;;;;;5001242;28;20623;-68
2021/10/23 11:58:41;;;;;;;0.30;0.20;;;12.60;99.90;;;;;;5030910;28;20198;-68
2021/10/23 12:01:09;;;;;;;0.30;0.20;;;12.50;99.90;;;;;;5031357;28;20185;-63
2021/10/23 12:03:51;;;;;;;0.30;0.17;;;12.70;99.90;;;;;;5015543;28;20255;-65
2021/10/23 12:06:19;;;;;;;0.30;0.20;;;12.60;99.90;;;;;;5030734;28;20185;-66
2021/10/23 12:08:45;;;;;;;0.50;0.45;;;12.20;99.90;;;;;;5031676;28;20210;-65
2021/10/23 12:11:19;;;;;;;0.30;0.20;;;12.50;99.90;;;;;;5015166;28;20518;-65
2021/10/23 12:13:50;;;;;;;1.15;1.05;;;12.80;99.90;;;;;;5030944;28;20616;-65
2021/10/23 12:16:19;;;;;;;2.72;1.13;;;12.80;99.90;;;;;;5027319;28;20248;-62
2021/10/23 12:18:46;;;;;;;0.30;0.20;;;12.80;99.90;;;;;;5033352;28;20193;-62
2021/10/23 12:21:21;;;;;;;0.30;0.20;;;12.80;65.20;;;;;;5028014;28;20185;-65
2021/10/23 12:23:55;;;;;;;0.47;0.30;;;12.70;99.90;;;;;;5028816;28;20231;-65
2021/10/23 12:26:27;;;;;;;0.30;0.20;;;12.60;99.90;;;;;;5033394;28;20491;-65
2021/10/23 12:29:01;;;;;;;0.30;0.17;;;12.60;99.90;;;;;;5011574;28;20225;-66
2021/10/23 12:31:47;;;;;;;0.30;0.20;;;12.80;99.90;;;;;;5024526;28;20185;-65
2021/10/23 12:34:12;;;;;;;0.30;0.17;;;13.20;99.90;;;;;;5021653;28;20220;-66
2021/10/23 12:36:48;;;;;;;0.40;0.33;;;13.30;1.00;;;;;;5033165;28;20173;-66
2021/10/23 12:39:25;;;;;;;0.88;0.50;;;13.30;99.90;;;;;;5033104;28;20682;-65
2021/10/23 12:41:51;;;;;;;0.30;0.20;;;12.90;1.00;;;;;;5033432;28;20668;-65
2021/10/23 12:44:18;;;;;;;0.30;0.20;;;12.90;99.90;;;;;;5033270;28;20181;-66
2021/10/23 12:46:45;;;;;;;0.30;0.10;;;13.00;99.90;;;;;;5033362;28;20184;-66
2021/10/23 12:49:11;;;;;;;0.30;0.20;;;12.80;99.90;;;;;;5033730;28;20213;-65
2021/10/23 12:51:37;;;;;;;0.30;0.20;;;13.00;99.90;;;;;;5032223;28;20637;-66
2021/10/23 12:54:05;;;;;;;0.30;0.20;;;12.50;99.90;;;;;;5037025;28;20177;-66
2021/10/23 12:56:31;;;;;;;0.30;0.20;;;12.60;99.90;;;;;;5035863;28;20254;-66
2021/10/23 12:58:57;;;;;;;0.30;0.20;;;12.80;99.90;;;;;;5026172;28;20189;-65
2021/10/23 13:01:23;;;;;;;0.30;0.20;;;12.90;99.90;;;;;;5035018;28;20177;-65
2021/10/23 13:03:49;;;;;;;0.30;0.20;;;12.70;99.90;;;;;;5031507;28;20184;-66